Time;durP1;ratioP1;P1;durP2;ratioP2;P2;SDS_P1;SDS_P2;PMS_P1;PMS_P2;Temp;Humidity;BMP_temperature;BMP_pressure;BME280_temperature;BME280_humidity;BME280_pressure;Samples;Min_cycle;Max_cycle;Signal;HPM_P1;HPM_P2
2022/04/25 00:01:05;;;;;;;19.50;17.50;;;;;;;;;;5103135;28;20256;-69
2022/04/25 00:03:32;;;;;;;22.13;18.77;;;;;;;;;;5103092;28;20233;-69
2022/04/25 00:05:59;;;;;;;22.10;19.60;;;;;;;;;;5102811;28;20220;-69
2022/04/25 00:08:25;;;;;;;21.70;19.40;;;;;;;;;;5102633;28;20195;-70
2022/04/25 00:10:51;;;;;;;21.20;18.95;;;;;;;;;;5102998;28;20202;-69
2022/04/25 00:13:17;;;;;;;20.90;18.08;;;;;;;;;;5103116;28;20237;-69
2022/04/25 00:15:44;;;;;;;20.25;18.33;;;;;;;;;;5102759;28;20241;-69
2022/04/25 00:18:10;;;;;;;20.55;18.35;;;;;;;;;;5102535;28;20206;-69
2022/04/25 00:20:37;;;;;;;20.58;18.48;;;;;;;;;;5102782;28;20246;-69
2022/04/25 00:23:05;;;;;;;20.70;18.50;;;;;;;;;;5102594;28;20208;-69
2022/04/25 00:25:31;;;;;;;20.70;18.60;;;;;;;;;;5102831;28;20263;-69
2022/04/25 00:27:58;;;;;;;19.55;17.58;;;;;;;;;;5102595;28;20236;-69
2022/04/25 00:30:24;;;;;;;22.10;18.58;;;;;;;;;;5102664;28;20222;-70
2022/04/25 00:32:51;;;;;;;21.02;18.73;;;;;;;;;;5101797;28;20238;-69
2022/04/25 00:35:17;;;;;;;20.15;18.00;;;;;;;;;;5102625;28;20200;-69
2022/04/25 00:37:44;;;;;;;20.42;18.23;;;;;;;;;;5102168;28;20229;-69
2022/04/25 00:40:11;;;;;;;20.25;18.15;;;;;;;;;;5102696;28;20192;-69
2022/04/25 00:42:37;;;;;;;19.40;17.40;;;;;;;;;;5102887;28;20196;-69
2022/04/25 00:45:04;;;;;;;20.02;18.00;;;;;;;;;;5102466;28;20196;-69
2022/04/25 00:47:30;;;;;;;22.08;19.58;;;;;;;;;;5102271;28;20471;-69
2022/04/25 00:49:56;;;;;;;23.27;20.83;;;;;;;;;;5102304;28;20216;-69
2022/04/25 00:52:22;;;;;;;23.73;21.00;;;;;;;;;;5102590;28;20196;-69
2022/04/25 00:54:51;;;;;;;22.50;20.00;;;;;;;;;;5102500;28;20234;-69
2022/04/25 00:57:17;;;;;;;24.27;21.67;;;;;;;;;;5102275;28;20196;-69
2022/04/25 00:59:44;;;;;;;24.95;21.08;;;;;;;;;;5102139;28;20191;-70
2022/04/25 01:02:10;;;;;;;23.27;20.45;;;;;;;;;;5102097;28;20203;-69
2022/04/25 01:04:36;;;;;;;22.95;19.42;;;;;;;;;;5101980;28;20199;-69
2022/04/25 01:07:03;;;;;;;24.70;21.80;;;;;;;;;;5102086;28;20196;-69
2022/04/25 01:09:29;;;;;;;26.38;22.17;;;;;;;;;;5102441;28;20265;-69
2022/04/25 01:11:58;;;;;;;23.50;21.00;;;;;;;;;;5102284;28;20196;-69
2022/04/25 01:14:24;;;;;;;25.05;21.88;;;;;;;;;;5102149;28;20196;-70
2022/04/25 01:16:51;;;;;;;23.85;21.45;;;;;;;;;;5101698;28;20198;-69
2022/04/25 01:19:17;;;;;;;25.80;22.33;;;;;;;;;;5102001;28;20192;-69
2022/04/25 01:21:44;;;;;;;27.55;21.75;;;;;;;;;;5102430;28;20200;-69
2022/04/25 01:29:40;;;;;;;27.60;23.33;;;;;;;;;;5101951;28;20233;-69
2022/04/25 01:32:07;;;;;;;25.90;23.10;;;;;;;;;;5102207;28;20203;-69
2022/04/25 01:34:36;;;;;;;24.35;21.77;;;;;;;;;;5102085;28;20229;-69
2022/04/25 01:37:05;;;;;;;27.77;22.70;;;;;;;;;;5101565;28;20211;-69
2022/04/25 01:39:32;;;;;;;26.23;23.42;;;;;;;;;;5102013;28;20267;-69
2022/04/25 01:41:58;;;;;;;26.20;23.55;;;;;;;;;;5102039;28;20411;-69
2022/04/25 01:44:25;;;;;;;26.80;22.80;;;;;;;;;;5103331;28;20420;-69
2022/04/25 01:46:51;;;;;;;25.83;23.10;;;;;;;;;;5105444;28;20503;-69
2022/04/25 01:49:17;;;;;;;26.48;23.67;;;;;;;;;;5106033;28;20220;-69
2022/04/25 01:51:44;;;;;;;27.23;24.23;;;;;;;;;;5105419;28;20230;-69
2022/04/25 01:54:10;;;;;;;26.20;23.50;;;;;;;;;;5105408;28;20421;-69
2022/04/25 01:56:38;;;;;;;27.13;24.33;;;;;;;;;;5105124;28;20195;-69
2022/04/25 01:59:04;;;;;;;27.25;24.45;;;;;;;;;;5105442;28;20241;-69
2022/04/25 02:01:30;;;;;;;28.50;25.27;;;;;;;;;;5105189;28;20320;-69
2022/04/25 02:03:56;;;;;;;29.23;26.02;;;;;;;;;;5105216;28;20210;-69
2022/04/25 02:06:23;;;;;;;27.55;24.65;;;;;;;;;;5104886;28;20451;-69
2022/04/25 02:08:49;;;;;;;25.77;23.05;;;;;;;;;;5105224;28;20371;-69
2022/04/25 02:11:22;;;;;;;26.38;23.55;;;;;;;;;;5105260;28;20431;-69
2022/04/25 02:13:50;;;;;;;27.65;24.67;;;;;;;;;;5105290;28;20267;-70
2022/04/25 02:16:17;;;;;;;30.40;24.27;;;;;;;;;;5104832;28;20206;-69
2022/04/25 02:18:43;;;;;;;27.60;24.45;;;;;;;;;;5104780;28;20207;-69
2022/04/25 02:21:10;;;;;;;27.02;24.13;;;;;;;;;;5105097;28;20195;-69
2022/04/25 02:23:36;;;;;;;27.20;23.33;;;;;;;;;;5105043;28;20203;-69
2022/04/25 02:26:02;;;;;;;28.67;24.42;;;;;;;;;;5104688;28;20203;-69
2022/04/25 02:28:29;;;;;;;29.13;26.02;;;;;;;;;;5104903;28;20203;-69
2022/04/25 02:30:58;;;;;;;29.60;24.85;;;;;;;;;;5104643;28;20215;-69
2022/04/25 02:33:24;;;;;;;30.13;26.33;;;;;;;;;;5104586;28;20232;-69
2022/04/25 02:35:51;;;;;;;31.95;26.85;;;;;;;;;;5104881;28;20395;-69
2022/04/25 02:38:18;;;;;;;29.65;26.33;;;;;;;;;;5104540;28;20204;-69
2022/04/25 02:40:44;;;;;;;30.90;27.38;;;;;;;;;;5104577;28;20390;-69
2022/04/25 02:43:10;;;;;;;30.45;27.13;;;;;;;;;;5104605;28;20446;-69
2022/04/25 02:45:36;;;;;;;29.80;26.70;;;;;;;;;;5104480;28;20203;-69
2022/04/25 02:48:05;;;;;;;29.80;25.77;;;;;;;;;;5104087;28;20195;-69
2022/04/25 02:50:31;;;;;;;30.58;26.98;;;;;;;;;;5104258;28;20219;-69
2022/04/25 02:52:57;;;;;;;31.15;26.65;;;;;;;;;;5104623;28;20202;-70
2022/04/25 02:55:24;;;;;;;28.98;25.85;;;;;;;;;;5103693;28;20195;-69
2022/04/25 02:57:50;;;;;;;28.65;25.65;;;;;;;;;;5104025;28;20548;-69
2022/04/25 03:00:16;;;;;;;29.83;26.63;;;;;;;;;;5104201;28;20522;-70
2022/04/25 03:02:43;;;;;;;27.58;24.58;;;;;;;;;;5104040;28;20219;-70
2022/04/25 03:05:10;;;;;;;29.55;25.95;;;;;;;;;;5103972;28;20219;-70
2022/04/25 03:07:37;;;;;;;31.65;26.33;;;;;;;;;;5103947;28;20196;-69
2022/04/25 03:10:03;;;;;;;29.27;26.08;;;;;;;;;;5103966;28;20238;-69
2022/04/25 03:12:29;;;;;;;29.23;25.48;;;;;;;;;;5103899;28;20440;-69
2022/04/25 03:14:56;;;;;;;29.55;25.13;;;;;;;;;;5103765;28;20196;-69
2022/04/25 03:17:22;;;;;;;27.45;23.73;;;;;;;;;;5103802;28;20387;-69
2022/04/25 03:19:48;;;;;;;31.08;26.33;;;;;;;;;;5103814;28;20383;-69
2022/04/25 03:22:17;;;;;;;29.73;25.23;;;;;;;;;;5103902;28;20431;-69
2022/04/25 03:24:43;;;;;;;29.10;24.90;;;;;;;;;;5103786;28;20195;-69
2022/04/25 03:27:09;;;;;;;28.90;25.63;;;;;;;;;;5103768;28;20214;-69
2022/04/25 03:29:36;;;;;;;27.90;24.67;;;;;;;;;;5104022;28;20253;-69
2022/04/25 03:32:02;;;;;;;27.92;24.80;;;;;;;;;;5103546;28;20204;-69
2022/04/25 03:34:28;;;;;;;29.92;24.92;;;;;;;;;;5103394;28;20259;-69
2022/04/25 03:36:56;;;;;;;28.88;25.08;;;;;;;;;;5103421;28;20196;-69
2022/04/25 03:39:23;;;;;;;29.48;24.50;;;;;;;;;;5103372;28;20211;-69
2022/04/25 03:41:49;;;;;;;28.13;25.15;;;;;;;;;;5103342;28;20203;-69
2022/04/25 03:44:16;;;;;;;28.25;25.25;;;;;;;;;;5103284;28;20432;-69
2022/04/25 03:46:42;;;;;;;27.35;24.40;;;;;;;;;;5103126;28;20203;-69
2022/04/25 03:49:09;;;;;;;28.85;25.42;;;;;;;;;;5103411;28;20195;-69
2022/04/25 03:51:35;;;;;;;29.80;25.25;;;;;;;;;;5103214;28;20223;-69
2022/04/25 03:54:01;;;;;;;28.75;24.08;;;;;;;;;;5103333;28;20233;-69
2022/04/25 03:59:13;;;;;;;29.98;25.42;;;;;;;;;;5103096;28;20251;-69
2022/04/25 04:01:39;;;;;;;28.48;24.80;;;;;;;;;;5102945;28;20522;-69
2022/04/25 04:04:05;;;;;;;29.35;23.70;;;;;;;;;;5103075;28;20206;-69
2022/04/25 04:06:32;;;;;;;29.58;25.13;;;;;;;;;;5102707;28;20259;-70
2022/04/25 04:08:58;;;;;;;29.42;24.80;;;;;;;;;;5102577;28;20202;-69
2022/04/25 04:11:46;;;;;;;26.30;23.48;;;;;;;;;;5102713;28;20248;-69
2022/04/25 04:14:12;;;;;;;28.77;25.20;;;;;;;;;;5102696;28;20199;-69
2022/04/25 04:16:38;;;;;;;27.13;24.23;;;;;;;;;;5102735;28;20215;-69
2022/04/25 04:19:05;;;;;;;30.77;24.02;;;;;;;;;;5102862;28;20203;-69
2022/04/25 04:21:31;;;;;;;27.75;24.75;;;;;;;;;;5102742;28;20264;-69
2022/04/25 04:23:59;;;;;;;28.52;25.00;;;;;;;;;;5102828;28;20363;-69
2022/04/25 04:26:25;;;;;;;28.58;25.52;;;;;;;;;;5102566;28;20196;-69
2022/04/25 04:28:51;;;;;;;29.08;25.40;;;;;;;;;;5102804;28;20200;-69
2022/04/25 04:31:19;;;;;;;27.50;24.55;;;;;;;;;;5102664;28;20222;-69
2022/04/25 04:33:45;;;;;;;27.02;24.15;;;;;;;;;;5102679;28;20195;-69
2022/04/25 04:36:22;;;;;;;27.27;24.38;;;;;;;;;;5102239;28;20199;-69
2022/04/25 04:38:48;;;;;;;29.08;25.23;;;;;;;;;;5102451;28;20195;-69
2022/04/25 04:41:15;;;;;;;29.58;25.17;;;;;;;;;;5102431;28;20191;-69
2022/04/25 04:43:41;;;;;;;31.17;25.80;;;;;;;;;;5102567;28;20195;-69
2022/04/25 04:46:08;;;;;;;29.92;25.92;;;;;;;;;;5102647;28;20513;-69
2022/04/25 04:48:35;;;;;;;29.90;25.38;;;;;;;;;;5102442;28;20492;-69
2022/04/25 04:51:01;;;;;;;27.48;24.48;;;;;;;;;;5102180;28;20534;-69
2022/04/25 04:53:28;;;;;;;27.83;23.92;;;;;;;;;;5102396;28;20370;-69
2022/04/25 04:55:54;;;;;;;28.90;25.15;;;;;;;;;;5102237;28;20203;-69
2022/04/25 04:58:20;;;;;;;29.20;26.10;;;;;;;;;;5102142;28;20233;-69
2022/04/25 05:00:47;;;;;;;28.98;25.88;;;;;;;;;;5102311;28;20206;-69
2022/04/25 05:03:14;;;;;;;27.05;24.10;;;;;;;;;;5101704;28;20211;-69
2022/04/25 05:05:41;;;;;;;28.60;24.55;;;;;;;;;;5101573;28;20212;-69
2022/04/25 05:08:07;;;;;;;27.65;24.40;;;;;;;;;;5101401;28;20196;-69
2022/04/25 05:10:34;;;;;;;29.10;25.27;;;;;;;;;;5101551;28;20212;-69
2022/04/25 05:13:00;;;;;;;29.00;25.20;;;;;;;;;;5101673;28;20206;-69
2022/04/25 05:15:26;;;;;;;28.40;25.35;;;;;;;;;;5101717;28;20390;-69
2022/04/25 05:17:53;;;;;;;28.98;25.85;;;;;;;;;;5100354;28;20495;-69
2022/04/25 05:20:20;;;;;;;28.80;25.70;;;;;;;;;;5104499;28;20237;-69
2022/04/25 05:22:48;;;;;;;27.55;24.55;;;;;;;;;;5105647;28;20203;-69
2022/04/25 05:25:15;;;;;;;30.48;25.58;;;;;;;;;;5105565;28;20492;-69
2022/04/25 05:27:42;;;;;;;29.58;25.88;;;;;;;;;;5105111;28;20482;-69
2022/04/25 05:30:09;;;;;;;28.48;24.02;;;;;;;;;;5105279;28;20409;-69
2022/04/25 05:32:43;;;;;;;27.67;24.58;;;;;;;;;;5105231;28;20245;-69
2022/04/25 05:35:09;;;;;;;32.08;25.20;;;;;;;;;;5105602;28;20483;-69
2022/04/25 05:37:38;;;;;;;27.15;24.23;;;;;;;;;;5105159;28;20405;-69
2022/04/25 05:40:07;;;;;;;28.90;24.50;;;;;;;;;;5105274;28;20495;-69
2022/04/25 05:42:33;;;;;;;27.25;24.33;;;;;;;;;;5105079;28;20249;-69
2022/04/25 05:45:00;;;;;;;26.85;22.55;;;;;;;;;;5104991;28;20204;-69
2022/04/25 05:47:26;;;;;;;27.20;23.60;;;;;;;;;;5105019;28;20203;-69
2022/04/25 05:52:37;;;;;;;26.75;23.80;;;;;;;;;;5104933;28;20233;-69
2022/04/25 05:55:03;;;;;;;28.58;24.83;;;;;;;;;;5105003;28;20526;-69
2022/04/25 05:57:31;;;;;;;27.00;24.08;;;;;;;;;;5104490;28;20196;-69
2022/04/25 05:59:57;;;;;;;29.25;24.70;;;;;;;;;;5104801;28;20313;-69
2022/04/25 06:02:23;;;;;;;26.38;23.25;;;;;;;;;;5104743;28;20249;-69
2022/04/25 06:04:50;;;;;;;28.08;24.45;;;;;;;;;;5104479;28;20196;-69
2022/04/25 06:07:16;;;;;;;27.45;23.45;;;;;;;;;;5104400;28;20499;-69
2022/04/25 06:09:42;;;;;;;27.63;24.73;;;;;;;;;;5104573;28;20456;-69
2022/04/25 06:12:09;;;;;;;29.63;25.15;;;;;;;;;;5104459;28;20403;-69
2022/04/25 06:14:37;;;;;;;27.10;24.10;;;;;;;;;;5104798;28;20275;-69
2022/04/25 06:17:03;;;;;;;30.75;25.73;;;;;;;;;;5104212;28;20196;-69
2022/04/25 06:19:29;;;;;;;28.60;24.98;;;;;;;;;;5105088;28;20202;-69
2022/04/25 06:21:56;;;;;;;27.00;24.10;;;;;;;;;;5104889;28;20229;-69
2022/04/25 06:24:22;;;;;;;28.65;24.42;;;;;;;;;;5104789;28;20203;-69
2022/04/25 06:26:49;;;;;;;28.45;23.67;;;;;;;;;;5100102;28;20230;-69
2022/04/25 06:29:15;;;;;;;25.95;23.08;;;;;;;;;;5089621;28;20219;-69
2022/04/25 06:31:43;;;;;;;29.92;23.85;;;;;;;;;;5080761;28;20633;-69
2022/04/25 06:34:09;;;;;;;27.20;23.40;;;;;;;;;;5093222;28;20223;-69
2022/04/25 06:36:36;;;;;;;28.13;24.73;;;;;;;;;;5098667;28;20203;-69
2022/04/25 06:39:03;;;;;;;51.47;44.60;;;;;;;;;;5098135;28;20206;-69
2022/04/25 06:41:30;;;;;;;28.63;24.92;;;;;;;;;;5098773;28;20211;-60
2022/04/25 06:43:58;;;;;;;28.80;24.25;;;;;;;;;;5098044;28;20463;-61
2022/04/25 06:46:25;;;;;;;26.70;23.55;;;;;;;;;;5098273;28;20307;-61
2022/04/25 06:51:36;;;;;;;25.90;23.10;;;;;;;;;;5098073;28;20437;-61
2022/04/25 06:54:03;;;;;;;27.98;24.70;;;;;;;;;;5098290;28;20737;-59
2022/04/25 06:56:30;;;;;;;27.63;24.63;;;;;;;;;;5098211;28;20208;-61
2022/04/25 06:58:56;;;;;;;24.80;22.08;;;;;;;;;;5098281;28;20234;-61
2022/04/25 07:01:23;;;;;;;25.63;22.92;;;;;;;;;;5097779;28;20215;-61
2022/04/25 07:03:49;;;;;;;27.70;23.23;;;;;;;;;;5098044;28;20214;-60
2022/04/25 07:06:17;;;;;;;25.75;23.05;;;;;;;;;;5098002;28;20570;-61
2022/04/25 07:08:43;;;;;;;24.90;22.20;;;;;;;;;;5085921;28;20523;-61
2022/04/25 07:11:09;;;;;;;25.83;23.13;;;;;;;;;;5077834;28;20563;-61
2022/04/25 07:13:35;;;;;;;24.33;21.73;;;;;;;;;;5077461;28;20440;-60
2022/04/25 07:16:02;;;;;;;24.23;21.73;;;;;;;;;;5077709;28;20522;-61
2022/04/25 07:18:29;;;;;;;26.10;22.95;;;;;;;;;;5077779;28;20209;-61
2022/04/25 07:20:55;;;;;;;25.73;23.02;;;;;;;;;;5077228;28;20205;-62
2022/04/25 07:28:53;;;;;;;27.58;23.50;;;;;;;;;;5098377;28;20206;-61
2022/04/25 07:31:19;;;;;;;27.55;22.60;;;;;;;;;;5097140;28;20553;-62
2022/04/25 07:33:46;;;;;;;26.15;22.33;;;;;;;;;;5097364;28;20557;-61
2022/04/25 07:36:12;;;;;;;24.02;21.40;;;;;;;;;;5097499;28;20208;-61
2022/04/25 07:38:40;;;;;;;22.70;19.83;;;;;;;;;;5097871;28;20214;-61
2022/04/25 07:41:07;;;;;;;21.90;19.75;;;;;;;;;;5097699;28;20272;-60
2022/04/25 07:43:34;;;;;;;22.85;20.45;;;;;;;;;;5097304;28;20235;-60
2022/04/25 07:46:00;;;;;;;21.88;19.58;;;;;;;;;;5097299;28;20216;-60
2022/04/25 07:48:26;;;;;;;23.05;20.38;;;;;;;;;;5097331;28;20207;-61
2022/04/25 07:50:53;;;;;;;22.77;19.02;;;;;;;;;;5096951;28;20231;-61
2022/04/25 07:53:19;;;;;;;20.95;18.67;;;;;;;;;;5097024;28;20215;-63
2022/04/25 07:55:47;;;;;;;19.63;17.63;;;;;;;;;;5096955;28;20515;-62
2022/04/25 07:58:13;;;;;;;19.08;17.10;;;;;;;;;;5096759;28;20230;-62
2022/04/25 08:00:40;;;;;;;20.02;18.02;;;;;;;;;;5096956;28;20558;-62
2022/04/25 08:03:06;;;;;;;19.40;17.50;;;;;;;;;;5079309;28;20216;-62
2022/04/25 08:05:32;;;;;;;19.60;17.55;;;;;;;;;;5077007;28;20228;-62
2022/04/25 08:07:59;;;;;;;18.75;16.75;;;;;;;;;;5077229;28;20208;-62
2022/04/25 08:10:25;;;;;;;18.38;16.58;;;;;;;;;;5076965;28;20208;-62
2022/04/25 08:18:20;;;;;;;20.75;17.17;;;;;;;;;;5096765;28;20467;-62
2022/04/25 08:20:47;;;;;;;18.58;16.38;;;;;;;;;;5096590;28;20530;-62
2022/04/25 08:23:14;;;;;;;15.45;13.95;;;;;;;;;;5096484;28;20207;-62
2022/04/25 08:25:41;;;;;;;15.15;13.70;;;;;;;;;;5096617;28;20404;-62
2022/04/25 08:28:09;;;;;;;17.73;15.00;;;;;;;;;;5096416;28;20245;-62
2022/04/25 08:30:36;;;;;;;17.00;15.30;;;;;;;;;;5096651;28;20495;-63
2022/04/25 08:33:02;;;;;;;17.05;15.35;;;;;;;;;;5096057;28;20242;-61
2022/04/25 08:35:29;;;;;;;18.33;16.42;;;;;;;;;;5096209;28;20211;-62
2022/04/25 08:37:55;;;;;;;20.02;17.70;;;;;;;;;;5096009;28;20230;-62
2022/04/25 08:40:22;;;;;;;18.80;16.92;;;;;;;;;;5096585;28;20207;-63
2022/04/25 08:42:48;;;;;;;19.45;17.30;;;;;;;;;;5095760;28;20212;-62
2022/04/25 08:45:16;;;;;;;18.98;16.90;;;;;;;;;;5096374;28;21179;-63
2022/04/25 08:47:46;;;;;;;18.63;16.83;;;;;;;;;;5095822;28;20245;-62
2022/04/25 08:50:13;;;;;;;18.50;15.93;;;;;;;;;;5096249;28;20547;-62
2022/04/25 08:52:41;;;;;;;18.48;16.13;;;;;;;;;;5095206;28;20592;-63
2022/04/25 08:55:07;;;;;;;17.30;15.43;;;;;;;;;;5098704;28;20211;-62
2022/04/25 08:57:35;;;;;;;18.67;16.65;;;;;;;;;;5100363;28;20240;-63
2022/04/25 09:00:04;;;;;;;16.73;14.98;;;;;;;;;;5091091;28;20217;-62
2022/04/25 09:02:33;;;;;;;16.85;14.82;;;;;;;;;;5079335;28;20268;-62
2022/04/25 09:04:59;;;;;;;17.73;15.90;;;;;;;;;;5093047;28;20231;-63
2022/04/25 09:07:26;;;;;;;17.08;15.38;;;;;;;;;;5099751;28;20207;-63
2022/04/25 09:09:52;;;;;;;15.98;14.30;;;;;;;;;;5100031;28;20208;-60
2022/04/25 09:12:19;;;;;;;17.48;15.77;;;;;;;;;;5099353;28;20228;-60
2022/04/25 09:14:46;;;;;;;16.30;14.75;;;;;;;;;;5100010;28;20507;-61
2022/04/25 09:17:13;;;;;;;16.45;14.10;;;;;;;;;;5099720;28;20515;-61
2022/04/25 09:19:40;;;;;;;17.15;14.57;;;;;;;;;;5099718;28;20211;-61
2022/04/25 09:22:09;;;;;;;15.20;13.68;;;;;;;;;;5099623;28;20227;-61
2022/04/25 09:24:36;;;;;;;15.25;13.88;;;;;;;;;;5084221;28;20213;-62
2022/04/25 09:27:13;;;;;;;15.38;13.90;;;;;;;;;;5099285;28;20524;-61
2022/04/25 09:29:40;;;;;;;14.95;13.52;;;;;;;;;;5099864;28;20214;-61
2022/04/25 09:32:09;;;;;;;15.88;14.25;;;;;;;;;;5099499;28;20250;-62
2022/04/25 09:37:38;;;;;;;16.60;14.45;;;;;;;;;;5099864;28;20322;-62
2022/04/25 09:40:05;;;;;;;15.70;14.10;;;;;;;;;;5100063;28;20207;-61
2022/04/25 09:42:31;;;;;;;14.70;13.07;;;;;;;;;;5099344;28;20207;-61
2022/04/25 09:44:58;;;;;;;15.35;13.85;;;;;;;;;;5099914;28;20208;-61
2022/04/25 09:47:25;;;;;;;14.65;13.32;;;;;;;;;;5099688;28;20562;-62
2022/04/25 09:49:58;;;;;;;15.05;13.57;;;;;;;;;;5099963;28;20223;-61
2022/04/25 09:52:26;;;;;;;13.60;12.38;;;;;;;;;;5099293;28;20612;-61
2022/04/25 09:54:53;;;;;;;14.68;12.60;;;;;;;;;;5099071;28;20554;-61
2022/04/25 09:57:28;;;;;;;13.30;12.00;;;;;;;;;;5098906;28;20284;-62
2022/04/25 09:59:56;;;;;;;12.80;11.55;;;;;;;;;;5099926;28;20252;-61
2022/04/25 10:02:22;;;;;;;13.35;12.15;;;;;;;;;;5099147;28;20265;-62
2022/04/25 10:04:48;;;;;;;13.60;12.40;;;;;;;;;;5099179;28;20215;-61
2022/04/25 10:07:16;;;;;;;13.15;11.95;;;;;;;;;;5098859;28;20207;-61
2022/04/25 10:09:44;;;;;;;12.80;11.60;;;;;;;;;;5098832;28;20440;-61
2022/04/25 10:12:10;;;;;;;12.80;11.70;;;;;;;;;;5098584;28;20228;-61
2022/04/25 10:14:37;;;;;;;13.35;11.95;;;;;;;;;;5099065;28;20408;-61
2022/04/25 10:17:04;;;;;;;13.45;11.90;;;;;;;;;;5098880;28;20537;-61
2022/04/25 10:19:30;;;;;;;14.30;12.90;;;;;;;;;;5099142;28;20248;-62
2022/04/25 10:21:57;;;;;;;14.25;12.23;;;;;;;;;;5098727;28;20211;-62
2022/04/25 10:24:23;;;;;;;14.18;12.75;;;;;;;;;;5098766;28;20237;-63
2022/04/25 10:26:52;;;;;;;13.02;11.80;;;;;;;;;;5098650;28;20329;-62
2022/04/25 10:29:21;;;;;;;12.80;11.55;;;;;;;;;;5098576;28;20222;-62
2022/04/25 10:31:48;;;;;;;13.30;11.55;;;;;;;;;;5098367;28;20227;-62
2022/04/25 10:34:15;;;;;;;12.45;11.35;;;;;;;;;;5098520;28;20537;-63
2022/04/25 10:36:42;;;;;;;11.55;10.52;;;;;;;;;;5098416;28;20235;-63
2022/04/25 10:39:13;;;;;;;12.88;11.57;;;;;;;;;;5098064;28;20409;-60
2022/04/25 10:44:43;;;;;;;13.52;12.27;;;;;;;;;;5098454;28;20210;-61
2022/04/25 10:47:12;;;;;;;12.63;11.43;;;;;;;;;;5097412;28;20207;-61
2022/04/25 10:49:40;;;;;;;10.98;9.77;;;;;;;;;;5098334;28;20211;-60
2022/04/25 10:52:26;;;;;;;10.73;9.65;;;;;;;;;;5097772;28;20246;-61
2022/04/25 10:54:52;;;;;;;12.23;10.52;;;;;;;;;;5098330;28;20214;-60
2022/04/25 10:57:19;;;;;;;11.45;10.35;;;;;;;;;;5097876;28;20212;-61
2022/04/25 10:59:45;;;;;;;11.00;10.02;;;;;;;;;;5097911;28;20852;-61
2022/04/25 11:02:23;;;;;;;10.55;9.75;;;;;;;;;;5097264;28;20211;-61
2022/04/25 11:05:05;;;;;;;11.13;10.00;;;;;;;;;;5097943;28;20206;-61
2022/04/25 11:07:32;;;;;;;10.73;9.82;;;;;;;;;;5097564;28;20557;-62
2022/04/25 11:09:58;;;;;;;11.10;9.82;;;;;;;;;;5097554;28;20511;-61
2022/04/25 11:12:39;;;;;;;9.90;9.10;;;;;;;;;;5097330;28;20600;-61
2022/04/25 11:15:07;;;;;;;10.73;9.70;;;;;;;;;;5097444;28;20479;-61
2022/04/25 11:17:34;;;;;;;9.93;9.13;;;;;;;;;;5096728;28;20207;-61
2022/04/25 11:20:02;;;;;;;10.15;9.13;;;;;;;;;;5098115;28;20208;-61
2022/04/25 11:22:31;;;;;;;10.50;9.60;;;;;;;;;;5096788;28;20499;-61
2022/04/25 11:24:57;;;;;;;9.75;8.77;;;;;;;;;;5097116;28;20230;-61
2022/04/25 11:27:23;;;;;;;9.68;8.70;;;;;;;;;;5097213;28;20511;-60
2022/04/25 11:30:12;;;;;;;10.20;9.18;;;;;;;;;;5097708;28;20208;-60
2022/04/25 11:32:43;;;;;;;9.88;8.73;;;;;;;;;;5097283;28;20223;-61
2022/04/25 11:35:10;;;;;;;10.80;9.90;;;;;;;;;;5097468;28;20448;-61
2022/04/25 11:37:36;;;;;;;9.50;8.73;;;;;;;;;;5097168;28;20207;-62
2022/04/25 11:40:04;;;;;;;10.15;9.18;;;;;;;;;;5097465;28;20241;-61
2022/04/25 11:42:31;;;;;;;10.40;9.40;;;;;;;;;;5097156;28;20431;-62
2022/04/25 11:44:58;;;;;;;11.50;10.00;;;;;;;;;;5097498;28;20556;-61
2022/04/25 11:47:24;;;;;;;11.13;9.98;;;;;;;;;;5097247;28;20215;-62
2022/04/25 11:49:59;;;;;;;10.20;9.27;;;;;;;;;;5097409;28;20208;-61
2022/04/25 11:52:26;;;;;;;11.70;10.65;;;;;;;;;;5096989;28;20221;-61
2022/04/25 11:54:52;;;;;;;9.90;8.90;;;;;;;;;;5097695;28;20215;-62
2022/04/25 11:57:18;;;;;;;10.63;9.63;;;;;;;;;;5098708;28;20410;-62
2022/04/25 11:59:45;;;;;;;9.60;8.80;;;;;;;;;;5097680;28;20215;-62
2022/04/25 12:02:11;;;;;;;10.20;9.38;;;;;;;;;;5097044;28;20218;-63
2022/04/25 12:04:38;;;;;;;10.15;9.23;;;;;;;;;;5097152;28;20207;-62
2022/04/25 12:07:06;;;;;;;12.93;9.52;;;;;;;;;;5097070;28;20360;-61
2022/04/25 12:17:46;;;;;;;14.25;12.95;;;;;;;;;;5096724;28;20221;-63
2022/04/25 12:20:13;;;;;;;15.40;13.70;;;;;;;;;;5097067;28;20214;-63
2022/04/25 12:22:54;;;;;;;16.73;14.63;;;;;;;;;;5096650;28;20208;-63
2022/04/25 12:25:21;;;;;;;16.13;14.63;;;;;;;;;;5096854;28;20210;-63
2022/04/25 12:28:00;;;;;;;17.30;15.43;;;;;;;;;;5096464;28;20207;-62
2022/04/25 12:30:28;;;;;;;18.50;16.55;;;;;;;;;;5096895;28;20479;-61
2022/04/25 12:33:05;;;;;;;17.85;16.02;;;;;;;;;;5087234;28;20236;-61
2022/04/25 12:35:31;;;;;;;18.45;16.48;;;;;;;;;;5085470;28;20288;-61
2022/04/25 12:37:59;;;;;;;20.63;17.33;;;;;;;;;;5087857;28;20226;-61
2022/04/25 12:40:25;;;;;;;18.20;15.68;;;;;;;;;;5096847;28;20199;-61
2022/04/25 12:42:54;;;;;;;18.67;16.77;;;;;;;;;;5096383;28;20211;-61
2022/04/25 12:45:20;;;;;;;18.25;16.45;;;;;;;;;;5096483;28;20208;-61
2022/04/25 12:47:53;;;;;;;21.00;18.80;;;;;;;;;;5096465;28;20211;-63
2022/04/25 12:50:34;;;;;;;19.38;17.17;;;;;;;;;;5096634;28;20231;-62
2022/04/25 12:53:02;;;;;;;20.50;18.42;;;;;;;;;;5096374;28;20232;-60
2022/04/25 12:55:42;;;;;;;20.58;18.52;;;;;;;;;;5096787;28;20402;-61
2022/04/25 12:58:08;;;;;;;15.52;14.00;;;;;;;;;;5096184;28;20208;-61
2022/04/25 13:00:39;;;;;;;16.60;14.85;;;;;;;;;;5096135;28;20207;-61
2022/04/25 13:03:06;;;;;;;16.38;13.40;;;;;;;;;;5096061;28;20211;-61
2022/04/25 13:05:32;;;;;;;12.25;11.05;;;;;;;;;;5096457;28;20224;-61
2022/04/25 13:07:58;;;;;;;9.95;9.13;;;;;;;;;;5096790;28;20218;-61
2022/04/25 13:10:26;;;;;;;10.68;9.10;;;;;;;;;;5096445;28;20215;-60
2022/04/25 13:12:55;;;;;;;6.95;6.45;;;;;;;;;;5095866;28;20273;-61
2022/04/25 13:15:23;;;;;;;6.80;5.68;;;;;;;;;;5096215;28;20208;-61
2022/04/25 13:17:49;;;;;;;8.07;6.28;;;;;;;;;;5096032;28;20215;-61
2022/04/25 13:20:16;;;;;;;8.13;7.18;;;;;;;;;;5096385;28;20515;-60
2022/04/25 13:22:43;;;;;;;7.03;6.40;;;;;;;;;;5095883;28;20210;-61
2022/04/25 13:25:10;;;;;;;7.95;7.25;;;;;;;;;;5096326;28;20219;-61
2022/04/25 13:27:38;;;;;;;6.93;6.35;;;;;;;;;;5095859;28;20212;-61
2022/04/25 13:30:05;;;;;;;7.90;6.78;;;;;;;;;;5096567;28;20215;-59
2022/04/25 13:32:32;;;;;;;9.00;8.00;;;;;;;;;;5092140;28;20223;-61
2022/04/25 13:34:58;;;;;;;7.03;6.53;;;;;;;;;;5075864;28;20269;-61
2022/04/25 13:37:25;;;;;;;7.57;7.07;;;;;;;;;;5076224;28;20209;-61
2022/04/25 13:39:52;;;;;;;7.43;6.82;;;;;;;;;;5076629;28;20208;-61
2022/04/25 13:42:18;;;;;;;7.70;6.30;;;;;;;;;;5079434;28;20250;-60
2022/04/25 13:44:46;;;;;;;8.23;7.35;;;;;;;;;;5079472;28;20208;-61
2022/04/25 13:47:12;;;;;;;7.30;6.63;;;;;;;;;;5079363;28;20527;-60
2022/04/25 13:49:39;;;;;;;6.75;6.25;;;;;;;;;;5079448;28;20407;-61
2022/04/25 13:52:05;;;;;;;6.57;6.03;;;;;;;;;;5079134;28;20516;-61
2022/04/25 13:54:31;;;;;;;6.28;5.68;;;;;;;;;;5078928;28;20231;-61
2022/04/25 13:56:58;;;;;;;6.10;5.50;;;;;;;;;;5079151;28;20263;-61
2022/04/25 13:59:24;;;;;;;7.05;6.35;;;;;;;;;;5079070;28;20235;-61
2022/04/25 14:01:52;;;;;;;6.60;6.03;;;;;;;;;;5079035;28;20451;-61
2022/04/25 14:04:18;;;;;;;7.50;6.82;;;;;;;;;;5079538;28;20287;-62
2022/04/25 14:06:45;;;;;;;6.88;6.13;;;;;;;;;;5079175;28;20264;-62
2022/04/25 14:09:11;;;;;;;8.07;7.28;;;;;;;;;;5078969;28;20227;-62
2022/04/25 14:11:37;;;;;;;7.20;6.50;;;;;;;;;;5079010;28;20200;-62
2022/04/25 14:14:04;;;;;;;7.60;6.53;;;;;;;;;;5079104;28;20220;-61
2022/04/25 14:16:31;;;;;;;7.05;6.45;;;;;;;;;;5079009;28;20381;-61
2022/04/25 14:18:59;;;;;;;6.30;5.72;;;;;;;;;;5079312;28;20228;-63
2022/04/25 14:21:25;;;;;;;6.22;5.82;;;;;;;;;;5079079;28;20453;-61
2022/04/25 14:23:52;;;;;;;5.90;5.50;;;;;;;;;;5078482;28;20212;-63
2022/04/25 14:26:18;;;;;;;5.35;5.05;;;;;;;;;;5092416;28;20449;-63
2022/04/25 14:28:46;;;;;;;5.63;5.30;;;;;;;;;;5099338;28;20215;-63
2022/04/25 14:31:12;;;;;;;7.00;5.40;;;;;;;;;;5099205;28;20208;-63
2022/04/25 14:33:39;;;;;;;4.75;4.55;;;;;;;;;;5098709;28;20230;-63
2022/04/25 14:36:06;;;;;;;4.38;4.07;;;;;;;;;;5098695;28;20215;-63
2022/04/25 14:38:32;;;;;;;5.35;4.63;;;;;;;;;;5098534;28;20208;-63
2022/04/25 14:40:59;;;;;;;5.13;4.50;;;;;;;;;;5098408;28;20208;-63
2022/04/25 14:43:25;;;;;;;4.65;4.45;;;;;;;;;;5098445;28;20208;-63
2022/04/25 14:45:55;;;;;;;5.13;4.72;;;;;;;;;;5098662;28;20208;-62
2022/04/25 14:48:22;;;;;;;4.38;4.18;;;;;;;;;;5097912;28;20235;-61
2022/04/25 14:56:24;;;;;;;4.50;4.20;;;;;;;;;;5098517;28;20210;-62
2022/04/25 14:58:55;;;;;;;11.27;4.65;;;;;;;;;;5098565;28;20214;-61
2022/04/25 15:01:21;;;;;;;5.13;4.68;;;;;;;;;;5097916;28;20254;-63
2022/04/25 15:03:47;;;;;;;3.88;3.70;;;;;;;;;;5098347;28;20211;-62
2022/04/25 15:06:16;;;;;;;4.18;3.97;;;;;;;;;;5098066;28;20223;-62